createdAt,value
2022-09-15T00:02:25.404Z,4.17
2022-09-15T00:04:52.051Z,3.80
2022-09-15T00:07:18.572Z,4.40
2022-09-15T00:09:45.117Z,4.57
2022-09-15T00:12:11.745Z,4.60
2022-09-15T00:14:38.281Z,4.80
2022-09-15T00:17:04.896Z,4.60
2022-09-15T00:19:31.574Z,4.47
2022-09-15T00:21:58.116Z,4.67
2022-09-15T00:24:24.599Z,4.67
2022-09-15T00:26:51.151Z,4.77
2022-09-15T00:29:17.719Z,4.33
2022-09-15T00:31:44.394Z,4.10
2022-09-15T00:34:12.831Z,4.33
2022-09-15T00:36:39.739Z,4.23
2022-09-15T00:39:06.467Z,4.60
2022-09-15T00:41:33.400Z,4.73
2022-09-15T00:44:07.267Z,4.70
2022-09-15T00:46:34.963Z,4.53
2022-09-15T00:49:06.073Z,4.67
2022-09-15T00:51:40.364Z,4.70
2022-09-15T00:54:09.603Z,4.90
2022-09-15T00:56:36.737Z,4.83
2022-09-15T00:59:06.918Z,4.83
2022-09-15T01:01:33.558Z,4.60
2022-09-15T01:04:00.425Z,4.37
2022-09-15T01:06:33.012Z,4.13
2022-09-15T01:09:08.559Z,4.47
2022-09-15T01:11:35.409Z,4.77
2022-09-15T01:14:02.097Z,4.60
2022-09-15T01:16:41.329Z,4.27
2022-09-15T01:19:37.343Z,4.37
2022-09-15T01:22:09.733Z,4.10
2022-09-15T01:25:03.215Z,4.33
2022-09-15T01:27:55.576Z,4.27
2022-09-15T01:30:23.573Z,4.17
2022-09-15T01:33:05.417Z,4.20
2022-09-15T01:35:49.594Z,4.60
2022-09-15T01:38:20.182Z,4.70
2022-09-15T01:41:00.906Z,4.20
2022-09-15T01:43:28.100Z,4.37
2022-09-15T01:45:54.828Z,4.53
2022-09-15T01:48:25.360Z,5.00
2022-09-15T01:50:56.326Z,4.93
2022-09-15T01:53:23.337Z,4.60
2022-09-15T01:55:53.944Z,4.07
2022-09-15T01:58:21.075Z,4.67
2022-09-15T02:01:00.540Z,4.47
2022-09-15T02:03:35.181Z,4.73
2022-09-15T02:06:07.255Z,4.93
2022-09-15T02:08:42.793Z,4.43
2022-09-15T02:11:16.857Z,4.37
2022-09-15T02:14:03.818Z,4.17
2022-09-15T02:16:34.351Z,4.47
2022-09-15T02:19:11.127Z,4.37
2022-09-15T02:21:55.303Z,4.53
2022-09-15T02:24:29.619Z,4.27
2022-09-15T02:26:56.773Z,4.40
2022-09-15T02:29:26.162Z,4.23
2022-09-15T02:31:55.011Z,4.13
2022-09-15T02:34:25.908Z,3.90
2022-09-15T02:36:53.539Z,4.00
2022-09-15T02:39:22.467Z,3.50
2022-09-15T02:41:49.211Z,3.97
2022-09-15T02:44:15.761Z,4.30
2022-09-15T02:46:42.483Z,4.23
2022-09-15T02:49:09.113Z,4.07
2022-09-15T02:51:35.995Z,4.23
2022-09-15T02:54:02.575Z,4.10
2022-09-15T02:56:29.105Z,4.17
2022-09-15T02:58:55.639Z,3.90
2022-09-15T03:01:34.773Z,4.20
2022-09-15T03:04:03.013Z,4.27
2022-09-15T03:06:34.551Z,4.20
2022-09-15T03:09:04.759Z,3.80
2022-09-15T03:11:31.770Z,3.90
2022-09-15T03:14:01.129Z,5.10
2022-09-15T03:16:29.833Z,4.30
2022-09-15T03:18:58.706Z,4.43
2022-09-15T03:21:26.072Z,4.27
2022-09-15T03:23:52.654Z,3.97
2022-09-15T03:26:19.246Z,4.60
2022-09-15T03:28:45.823Z,4.47
2022-09-15T03:31:12.459Z,4.20
2022-09-15T03:33:39.113Z,4.80
2022-09-15T03:36:06.933Z,4.13
2022-09-15T03:38:33.612Z,4.30
2022-09-15T03:41:02.477Z,4.53
2022-09-15T03:43:30.904Z,4.73
2022-09-15T03:45:57.811Z,4.43
2022-09-15T03:48:25.564Z,4.80
2022-09-15T03:50:52.430Z,4.17
2022-09-15T03:53:20.169Z,4.40
2022-09-15T03:55:48.431Z,5.03
2022-09-15T03:58:16.289Z,4.50
2022-09-15T04:00:43.908Z,4.80
2022-09-15T04:03:10.559Z,4.63
2022-09-15T04:05:37.153Z,4.33
2022-09-15T04:08:03.717Z,4.27
2022-09-15T04:10:30.848Z,4.47
2022-09-15T04:12:57.642Z,4.40
2022-09-15T04:15:24.217Z,4.63
2022-09-15T04:17:50.835Z,4.37
2022-09-15T04:20:17.466Z,4.13
2022-09-15T04:22:44.776Z,4.13
2022-09-15T04:25:11.560Z,4.90
2022-09-15T04:27:38.667Z,4.80
2022-09-15T04:30:07.067Z,4.73
2022-09-15T04:32:35.410Z,4.80
2022-09-15T04:35:02.598Z,4.50
2022-09-15T04:37:29.397Z,4.87
2022-09-15T04:39:56.667Z,5.37
2022-09-15T04:42:24.035Z,4.50
2022-09-15T04:44:50.955Z,4.53
2022-09-15T04:47:17.700Z,4.30
2022-09-15T04:49:44.326Z,4.70
2022-09-15T04:52:10.855Z,4.70
2022-09-15T04:54:37.574Z,4.50
2022-09-15T04:57:04.314Z,5.37
2022-09-15T04:59:30.905Z,4.70
2022-09-15T05:01:57.531Z,5.30
2022-09-15T05:04:24.140Z,5.13
2022-09-15T05:06:50.694Z,5.10
2022-09-15T05:09:17.263Z,5.33
2022-09-15T05:11:43.776Z,5.63
2022-09-15T05:14:10.821Z,5.50
2022-09-15T05:16:37.675Z,5.53
2022-09-15T05:19:04.788Z,5.23
2022-09-15T05:21:32.143Z,5.33
2022-09-15T05:23:58.707Z,5.30
2022-09-15T05:26:28.231Z,6.90
2022-09-15T05:28:55.476Z,7.30
2022-09-15T05:31:24.998Z,7.93
2022-09-15T05:33:52.666Z,7.87
2022-09-15T05:36:21.233Z,7.80
2022-09-15T05:38:50.205Z,7.77
2022-09-15T05:41:18.521Z,8.67
2022-09-15T05:43:48.932Z,7.70
2022-09-15T05:46:17.010Z,9.00
2022-09-15T05:48:45.117Z,8.30
2022-09-15T05:51:12.242Z,9.53
2022-09-15T05:53:39.107Z,9.13
2022-09-15T05:56:08.143Z,9.97
2022-09-15T05:58:34.815Z,10.80
2022-09-15T06:01:09.319Z,10.90
2022-09-15T06:03:36.157Z,10.87
2022-09-15T06:06:04.403Z,9.63
2022-09-15T06:08:44.259Z,11.37
2022-09-15T06:11:13.879Z,12.20
2022-09-15T06:13:40.509Z,9.90
2022-09-15T06:16:09.401Z,11.37
2022-09-15T06:18:37.355Z,12.10
2022-09-15T06:21:17.905Z,11.20
2022-09-15T06:23:48.590Z,12.30
2022-09-15T06:26:18.944Z,11.60
2022-09-15T06:28:56.574Z,11.43
2022-09-15T06:31:24.471Z,10.70
2022-09-15T06:33:53.053Z,10.80
2022-09-15T06:36:22.827Z,11.97
2022-09-15T06:38:49.878Z,12.27
2022-09-15T06:41:16.677Z,11.50
2022-09-15T06:43:49.196Z,11.63
2022-09-15T06:46:21.158Z,12.40
2022-09-15T06:48:48.840Z,11.77
2022-09-15T06:51:17.092Z,12.60
2022-09-15T06:53:44.174Z,11.43
2022-09-15T06:56:13.401Z,11.50
2022-09-15T06:58:41.044Z,11.68
2022-09-15T07:01:09.833Z,11.00
2022-09-15T07:03:37.905Z,11.37
2022-09-15T07:06:05.194Z,9.80
2022-09-15T07:08:32.091Z,12.23
2022-09-15T07:10:58.642Z,11.33
2022-09-15T07:13:25.280Z,11.87
2022-09-15T07:15:57.713Z,11.57
2022-09-15T07:18:24.741Z,11.10
2022-09-15T07:20:51.578Z,10.43
2022-09-15T07:23:18.736Z,10.77
2022-09-15T07:25:45.637Z,12.70
2022-09-15T07:28:12.725Z,11.37
2022-09-15T07:30:39.585Z,12.40
2022-09-15T07:33:07.347Z,10.93
2022-09-15T07:35:34.085Z,10.17
2022-09-15T07:38:00.746Z,10.50
2022-09-15T07:40:28.280Z,13.27
2022-09-15T07:42:54.854Z,10.57
2022-09-15T07:45:21.501Z,12.07
2022-09-15T07:47:48.023Z,11.17
2022-09-15T07:50:14.841Z,10.97
2022-09-15T07:52:41.373Z,9.90
2022-09-15T07:55:09.418Z,10.23
2022-09-15T07:57:36.002Z,10.00
2022-09-15T08:00:03.718Z,9.13
2022-09-15T08:02:38.560Z,10.53
2022-09-15T08:05:05.440Z,10.77
2022-09-15T08:07:31.987Z,10.70
2022-09-15T08:09:58.493Z,9.47
2022-09-15T08:12:25.067Z,10.40
2022-09-15T08:14:51.619Z,10.40
2022-09-15T08:17:18.157Z,10.57
2022-09-15T08:19:44.790Z,9.70
2022-09-15T08:22:11.369Z,10.17
2022-09-15T08:24:37.898Z,9.77
2022-09-15T08:27:04.509Z,10.27
2022-09-15T08:29:31.140Z,9.17
2022-09-15T08:31:57.734Z,8.60
2022-09-15T08:34:24.639Z,8.57
2022-09-15T08:36:51.185Z,9.47
2022-09-15T08:39:17.898Z,8.70
2022-09-15T08:41:47.044Z,8.70
2022-09-15T08:44:24.839Z,8.20
2022-09-15T08:47:14.863Z,8.07
2022-09-15T08:49:51.945Z,6.97
2022-09-15T08:52:39.863Z,6.90
2022-09-15T08:55:13.664Z,7.13
2022-09-15T08:57:40.624Z,6.47
2022-09-15T09:00:16.761Z,6.57
2022-09-15T09:02:58.918Z,6.30
2022-09-15T09:05:53.623Z,6.60
2022-09-15T09:08:26.053Z,5.90
2022-09-15T09:10:55.567Z,6.30
2022-09-15T09:13:49.496Z,6.00
2022-09-15T09:16:19.045Z,5.83
2022-09-15T09:18:54.539Z,6.17
2022-09-15T09:21:29.504Z,6.13
2022-09-15T09:24:01.420Z,6.33
2022-09-15T09:26:31.151Z,6.33
2022-09-15T09:29:12.984Z,6.67
2022-09-15T09:31:40.340Z,6.07
2022-09-15T09:34:35.395Z,5.83
2022-09-15T09:37:09.912Z,5.37
2022-09-15T09:39:36.543Z,5.50
2022-09-15T09:42:03.776Z,4.90
2022-09-15T09:44:32.894Z,6.03
2022-09-15T09:47:00.671Z,4.97
2022-09-15T09:49:29.590Z,4.67
2022-09-15T09:52:03.715Z,4.37
2022-09-15T09:54:34.271Z,4.50
2022-09-15T09:57:13.153Z,4.23
2022-09-15T09:59:40.968Z,4.00
2022-09-15T10:02:10.506Z,3.90
2022-09-15T10:04:50.326Z,3.60
2022-09-15T10:07:20.426Z,3.80
2022-09-15T10:09:52.988Z,3.07
2022-09-15T10:12:25.702Z,3.00
2022-09-15T10:14:55.393Z,2.87
2022-09-15T10:17:24.715Z,2.60
2022-09-15T10:19:53.241Z,2.40
2022-09-15T10:22:29.107Z,2.30
2022-09-15T10:24:56.276Z,2.00
2022-09-15T10:27:32.004Z,1.80
2022-09-15T10:30:00.493Z,1.97
2022-09-15T10:32:28.087Z,1.67
2022-09-15T10:35:01.525Z,1.67
2022-09-15T10:37:40.331Z,1.63
2022-09-15T10:40:26.133Z,1.57
2022-09-15T10:42:55.736Z,1.60
2022-09-15T10:45:34.240Z,1.40
2022-09-15T10:48:02.971Z,1.30
2022-09-15T10:50:33.631Z,1.20
2022-09-15T10:53:10.729Z,1.03
2022-09-15T10:56:04.644Z,1.27
2022-09-15T10:59:15.194Z,1.20
2022-09-15T11:02:08.321Z,1.10
2022-09-15T11:04:46.777Z,1.07
2022-09-15T11:07:32.025Z,1.37
2022-09-15T11:10:10.729Z,1.20
2022-09-15T11:12:43.511Z,1.23
2022-09-15T11:15:21.700Z,1.27
2022-09-15T11:18:18.676Z,1.10
2022-09-15T11:21:12.721Z,1.17
2022-09-15T11:23:44.330Z,1.30
2022-09-15T11:26:16.207Z,1.20
2022-09-15T11:28:47.382Z,1.10
2022-09-15T11:31:22.919Z,1.17
2022-09-15T11:34:02.028Z,1.30
2022-09-15T11:36:33.841Z,1.40
2022-09-15T11:39:08.221Z,1.40
2022-09-15T11:42:07.282Z,1.47
2022-09-15T11:44:41.425Z,1.43
2022-09-15T11:47:16.689Z,1.30
2022-09-15T11:49:50.576Z,1.30
2022-09-15T11:52:54.469Z,1.53
2022-09-15T11:55:42.158Z,1.40
2022-09-15T11:58:55.440Z,1.43
2022-09-15T12:01:31.008Z,1.23
2022-09-15T12:04:04.498Z,2.90
2022-09-15T12:06:48.810Z,6.77
2022-09-15T12:09:17.197Z,8.23
2022-09-15T12:11:48.491Z,4.00
2022-09-15T12:14:30.955Z,2.47
2022-09-15T12:16:58.365Z,1.53
2022-09-15T12:19:34.046Z,1.70
2022-09-15T12:22:06.660Z,1.67
2022-09-15T12:24:45.833Z,3.33
2022-09-15T12:27:16.970Z,1.90
2022-09-15T12:29:51.434Z,1.70
2022-09-15T12:32:31.950Z,1.80
2022-09-15T12:35:16.821Z,3.30
2022-09-15T12:37:45.724Z,3.10
2022-09-15T12:40:30.510Z,2.57
2022-09-15T12:42:57.535Z,2.20
2022-09-15T12:45:27.316Z,2.33
2022-09-15T12:48:03.690Z,2.10
2022-09-15T12:50:36.714Z,2.00
2022-09-15T12:53:14.051Z,2.10
2022-09-15T12:56:00.059Z,2.70
2022-09-15T12:58:39.921Z,2.43
2022-09-15T13:01:31.399Z,2.10
2022-09-15T13:03:57.929Z,2.00
2022-09-15T13:06:34.236Z,1.90
2022-09-15T13:09:03.956Z,2.13
2022-09-15T13:11:34.656Z,2.00
2022-09-15T13:14:06.667Z,1.80
2022-09-15T13:16:51.748Z,1.90
2022-09-15T13:19:33.615Z,2.13
2022-09-15T13:22:09.469Z,1.77
2022-09-15T13:24:44.500Z,2.00
2022-09-15T13:27:12.486Z,1.80
2022-09-15T13:29:45.363Z,1.70
2022-09-15T13:32:22.294Z,1.80
2022-09-15T13:35:18.227Z,2.03
2022-09-15T13:38:19.951Z,2.03
2022-09-15T13:41:08.272Z,2.07
2022-09-15T13:43:58.678Z,1.90
2022-09-15T13:46:29.076Z,1.87
2022-09-15T13:49:17.027Z,2.03
2022-09-15T13:51:46.934Z,2.10
2022-09-15T13:54:19.395Z,1.83
2022-09-15T13:56:47.397Z,2.03
2022-09-15T13:59:20.345Z,2.17
2022-09-15T14:01:47.182Z,2.00
2022-09-15T14:04:19.423Z,2.00
2022-09-15T14:06:48.735Z,2.03
2022-09-15T14:09:42.434Z,1.83
2022-09-15T14:12:12.076Z,2.30
2022-09-15T14:14:45.057Z,1.90
2022-09-15T14:17:26.497Z,1.90
2022-09-15T14:19:57.481Z,2.00
2022-09-15T14:22:28.269Z,1.90
2022-09-15T14:24:56.539Z,1.97
2022-09-15T14:27:29.034Z,1.70
2022-09-15T14:29:57.845Z,1.63
2022-09-15T14:32:25.888Z,1.70
2022-09-15T14:34:53.274Z,1.90
2022-09-15T14:37:28.545Z,2.00
2022-09-15T14:39:57.309Z,1.67
2022-09-15T14:42:30.645Z,1.80
2022-09-15T14:48:02.719Z,2.20
2022-09-15T14:50:33.298Z,1.97
2022-09-15T14:53:05.657Z,1.90
2022-09-15T14:55:53.268Z,2.00
2022-09-15T14:58:32.114Z,1.80
2022-09-15T15:01:18.640Z,1.90
2022-09-15T15:04:12.201Z,1.70
2022-09-15T15:06:55.891Z,2.03
2022-09-15T15:09:32.035Z,1.60
2022-09-15T15:12:03.878Z,1.70
2022-09-15T15:14:30.625Z,1.80
2022-09-15T15:17:02.508Z,1.70
2022-09-15T15:19:32.627Z,1.90
2022-09-15T15:22:16.645Z,1.70
2022-09-15T15:24:45.634Z,1.70
2022-09-15T15:27:34.220Z,1.60
2022-09-15T15:30:30.722Z,1.50
2022-09-15T15:32:58.549Z,1.43
2022-09-15T15:35:25.522Z,1.40
2022-09-15T15:38:03.805Z,1.30
2022-09-15T15:40:30.849Z,1.33
2022-09-15T15:43:03.432Z,1.63
2022-09-15T15:45:31.907Z,1.30
2022-09-15T15:47:58.531Z,1.40
2022-09-15T15:50:28.309Z,1.33
2022-09-15T15:52:55.035Z,1.40
2022-09-15T15:55:30.940Z,1.30
2022-09-15T15:57:57.496Z,1.30
2022-09-15T16:00:56.798Z,1.30
2022-09-15T16:03:24.536Z,1.30
2022-09-15T16:05:54.087Z,1.30
2022-09-15T16:08:32.501Z,1.40
2022-09-15T16:11:00.649Z,1.50
2022-09-15T16:13:27.378Z,1.30
2022-09-15T16:15:54.766Z,1.40
2022-09-15T16:18:21.467Z,1.43
2022-09-15T16:20:47.989Z,1.60
2022-09-15T16:23:16.719Z,1.33
2022-09-15T16:25:53.633Z,1.30
2022-09-15T16:28:20.281Z,1.37
2022-09-15T16:30:47.337Z,1.40
2022-09-15T16:33:18.394Z,1.60
2022-09-15T16:35:56.460Z,1.60
2022-09-15T16:38:25.802Z,1.30
2022-09-15T16:40:52.709Z,1.67
2022-09-15T16:43:21.567Z,1.40
2022-09-15T16:45:49.533Z,1.30
2022-09-15T16:48:16.589Z,1.37
2022-09-15T16:51:09.538Z,1.52
2022-09-15T16:53:31.038Z,1.67
2022-09-15T16:55:58.668Z,2.20
2022-09-15T16:58:25.200Z,1.77
2022-09-15T17:00:52.911Z,1.40
2022-09-15T17:03:22.148Z,1.40
2022-09-15T17:05:50.251Z,1.63
2022-09-15T17:08:18.921Z,1.50
2022-09-15T17:10:46.171Z,1.50
2022-09-15T17:13:25.207Z,1.40
2022-09-15T17:15:54.682Z,1.73
2022-09-15T17:18:21.982Z,1.60
2022-09-15T17:20:49.721Z,1.53
2022-09-15T17:23:27.861Z,1.57
2022-09-15T17:25:59.445Z,1.50
2022-09-15T17:28:31.218Z,2.00
2022-09-15T17:31:03.041Z,1.70
2022-09-15T17:33:31.060Z,1.50
2022-09-15T17:35:58.591Z,1.47
2022-09-15T17:38:25.581Z,1.33
2022-09-15T17:40:52.818Z,2.43
2022-09-15T17:43:21.376Z,2.10
2022-09-15T17:45:48.725Z,2.00
2022-09-15T17:48:15.990Z,2.30
2022-09-15T17:50:43.008Z,1.90
2022-09-15T17:53:13.165Z,1.80
2022-09-15T17:55:40.057Z,1.60
2022-09-15T17:58:07.137Z,1.67
2022-09-15T18:00:36.880Z,2.00
2022-09-15T18:03:34.655Z,2.53
2022-09-15T18:06:05.249Z,2.80
2022-09-15T18:08:35.866Z,2.20
2022-09-15T18:11:03.942Z,2.10
2022-09-15T18:13:31.285Z,1.90
2022-09-15T18:16:03.521Z,1.70
2022-09-15T18:18:30.431Z,1.70
2022-09-15T18:20:58.044Z,1.40
2022-09-15T18:23:26.921Z,1.33
2022-09-15T18:25:53.564Z,1.70
2022-09-15T18:28:20.520Z,1.30
2022-09-15T18:30:48.988Z,1.70
2022-09-15T18:33:20.973Z,1.47
2022-09-15T18:35:49.661Z,1.60
2022-09-15T18:38:17.123Z,1.60
2022-09-15T18:40:49.348Z,1.73
2022-09-15T18:43:17.600Z,1.50
2022-09-15T18:45:44.396Z,1.70
2022-09-15T18:48:13.155Z,1.67
2022-09-15T18:50:40.918Z,1.50
2022-09-15T18:53:07.611Z,1.80
2022-09-15T18:55:34.160Z,1.43
2022-09-15T18:58:01.272Z,1.57
2022-09-15T19:00:28.884Z,1.90
2022-09-15T19:02:58.120Z,1.77
2022-09-15T19:05:25.116Z,2.00
2022-09-15T19:07:51.644Z,1.60
2022-09-15T19:10:18.301Z,1.60
2022-09-15T19:12:44.917Z,1.50
2022-09-15T19:15:12.380Z,1.70
2022-09-15T19:17:39.527Z,1.73
2022-09-15T19:20:08.529Z,1.80
2022-09-15T19:22:35.945Z,1.40
2022-09-15T19:25:03.357Z,1.87
2022-09-15T19:27:29.991Z,1.93
2022-09-15T19:29:56.620Z,2.20
2022-09-15T19:32:23.673Z,2.10
2022-09-15T19:34:50.201Z,1.97
2022-09-15T19:37:20.045Z,1.77
2022-09-15T19:39:47.515Z,2.13
2022-09-15T19:44:43.469Z,2.00
2022-09-15T19:47:10.565Z,2.30
2022-09-15T19:49:37.323Z,2.30
2022-09-15T19:52:06.282Z,2.40
2022-09-15T19:54:34.522Z,2.10
2022-09-15T19:57:01.759Z,2.47
2022-09-15T19:59:31.235Z,2.07
2022-09-15T20:01:58.463Z,2.20
2022-09-15T20:04:25.131Z,2.00
2022-09-15T20:06:51.874Z,2.03
2022-09-15T20:09:18.799Z,2.20
2022-09-15T20:11:45.363Z,2.10
2022-09-15T20:14:12.031Z,2.10
2022-09-15T20:16:38.651Z,1.80
2022-09-15T20:19:06.127Z,2.43
2022-09-15T20:21:51.372Z,2.10
2022-09-15T20:24:19.020Z,2.20
2022-09-15T20:26:45.710Z,2.23
2022-09-15T20:29:13.211Z,2.30
2022-09-15T20:31:40.048Z,2.30
2022-09-15T20:34:06.632Z,2.07
2022-09-15T20:36:35.559Z,2.10
2022-09-15T20:39:04.089Z,2.33
2022-09-15T20:41:34.053Z,2.30
2022-09-15T20:44:01.035Z,2.20
2022-09-15T20:46:29.360Z,2.33
2022-09-15T20:48:55.969Z,2.10
2022-09-15T20:51:25.566Z,2.17
2022-09-15T20:53:54.111Z,2.00
2022-09-15T20:56:24.875Z,2.30
2022-09-15T20:58:58.758Z,2.00
2022-09-15T21:01:27.508Z,2.10
2022-09-15T21:03:55.384Z,2.10
2022-09-15T21:06:25.083Z,1.83
2022-09-15T21:08:53.183Z,1.90
2022-09-15T21:11:20.633Z,2.67
2022-09-15T21:13:48.551Z,2.30
2022-09-15T21:16:20.752Z,2.30
2022-09-15T21:18:48.228Z,2.37
2022-09-15T21:21:20.853Z,2.13
2022-09-15T21:23:53.069Z,2.53
2022-09-15T21:26:21.878Z,1.90
2022-09-15T21:28:48.759Z,1.90
2022-09-15T21:31:17.999Z,2.30
2022-09-15T21:33:45.702Z,1.97
2022-09-15T21:36:17.493Z,2.27
2022-09-15T21:38:44.722Z,1.80
2022-09-15T21:41:16.250Z,1.80
2022-09-15T21:43:44.507Z,2.00
2022-09-15T21:46:13.413Z,2.10
2022-09-15T21:48:40.684Z,2.37
2022-09-15T21:51:08.170Z,2.10
2022-09-15T21:53:35.035Z,1.83
2022-09-15T21:56:03.431Z,1.83
2022-09-15T21:58:39.057Z,1.50
2022-09-15T22:01:25.876Z,1.70
2022-09-15T22:03:54.766Z,1.70
2022-09-15T22:06:23.350Z,1.50
2022-09-15T22:08:49.935Z,1.50
2022-09-15T22:11:16.591Z,1.80
2022-09-15T22:13:44.563Z,1.40
2022-09-15T22:16:13.738Z,1.60
2022-09-15T22:18:41.135Z,1.30
2022-09-15T22:21:17.945Z,1.70
2022-09-15T22:23:46.108Z,1.50
2022-09-15T22:26:33.584Z,1.30
2022-09-15T22:29:00.168Z,1.50
2022-09-15T22:31:28.139Z,1.00
2022-09-15T22:33:55.194Z,1.50
2022-09-15T22:36:29.649Z,1.30
2022-09-15T22:39:03.650Z,1.40
2022-09-15T22:41:31.940Z,1.30
2022-09-15T22:43:58.910Z,1.20
2022-09-15T22:46:25.723Z,1.30
2022-09-15T22:48:52.382Z,1.40
2022-09-15T22:51:19.109Z,1.30
2022-09-15T22:53:45.616Z,1.50
2022-09-15T22:56:15.496Z,1.57
2022-09-15T22:58:46.354Z,1.30
2022-09-15T23:01:15.138Z,1.40
2022-09-15T23:03:42.177Z,1.37
2022-09-15T23:06:08.803Z,1.10
2022-09-15T23:08:36.107Z,1.17
2022-09-15T23:11:11.296Z,1.47
2022-09-15T23:13:38.130Z,1.50
2022-09-15T23:16:06.004Z,1.10
2022-09-15T23:18:32.699Z,1.10
2022-09-15T23:21:01.079Z,1.20
2022-09-15T23:23:28.471Z,1.20
2022-09-15T23:25:55.579Z,1.00
2022-09-15T23:28:22.545Z,1.00
2022-09-15T23:30:53.888Z,1.50
2022-09-15T23:33:21.131Z,1.20
2022-09-15T23:35:48.053Z,1.50
2022-09-15T23:38:15.189Z,1.50
2022-09-15T23:40:42.839Z,1.13
2022-09-15T23:43:10.445Z,1.17
2022-09-15T23:45:37.656Z,1.10
2022-09-15T23:48:05.581Z,1.17
2022-09-15T23:50:32.777Z,1.40
2022-09-15T23:52:59.387Z,1.07
2022-09-15T23:55:26.591Z,1.00
2022-09-15T23:57:53.148Z,1.27
